Accueil
METAR-TAF:

METAR-TAF

Aéroports :

Makkovik, Terre-Neuve-et-Labrador, Canada

latitude: 55-05N, longitude: 059-11W, altitude: 71 m

Observation

Le bulletin a été fait il y a 55 minutes, à 19:00 UTC
Vent 9 kt de nord-ouest
Température 1°C
Humidité 59%
Pression 1009 hPa
Visibilité: 24.1 km
Nuages fragmentés à une hauteur de 2200 ft

METAR: CYFT 221900Z 31009KT 15SM BKN022 01/M06 A2979 RMK CU7 SLP094

Heure: 16:55 (19:55 UTC)


TAF: absent

Observations et prévisions météorologiques de plus de 4000 aéroports (messages METAR et TAF).

Les stations disponibles sont représentées par des disques jaunes et rouges sur la carte.

Passer la souris dessus pour voir le nom de la station.

Cliquer dessus pour voir les observations et prévisions météorologiques.

Pour changer de carte: cliquez sur les boutons verts avec une croix noire pour zoomer, sur le bouton vert avec un tiret pour effectuer un zoom arrière, ou sur les flèches vertes pour les cartes adjacentes.


METAR-TAF: